Current Weather

Portland International Airpor

Portland International Airpor, Oregon (KPDX)

Report from: Thursday, May 19, 2022 9:53 AM PDT
Current time: Thursday, May 19, 2022 10:49 AM PDT

Nearby weather
Weather history
Weather forecast

Present weatherLight rain
Temperature9.4°C (48.9°F)
Wind chill7.5°C (45.4°F)
Dew point3.9°C (39.0°F)
Winds 7 kts (3.6 m/s, 8.1 mph) West-Northwest (290°)
Visibility8 mi. (12.9 km)
Clouds Ceiling: Broken clouds 3,900 ft. (1,189 m)
Overcast 4,900 ft. (1,494 m)
Altimeter30.27 in.Hg (1025 mB)
Precipitiation0.02 in. (1 mm)
Relative humidity69 %
Density altitude-950 ft. (-290 m)
Sea-level pressure102.5 kPa (1025 mB, 30.27 in.Hg)
Remarks Automated weather observing station with precipitation discriminator
Flight conditions Visual Meteorological Conditions
Raw dataKPDX 191653Z 29007KT 8SM -RA BKN039 OVC049 09/04 A3027 RMK AO2 SLP250 P0002 T00940039
An error has occurred. This application may no longer respond until reloaded. Reload 🗙